EWG2496 EDDS-LQSA
Flight info
| Callsign | EWG2496 |
|---|---|
| Flight time | 1h 12m |
| Altitude | 35000 |
| Route | ABTAL4B ABTAL L173 RIXED Y161 MAH L173 OTT M867 VAVOR DCT RADIZ DCT GORPA DCT OKSIG DCT MARIL DCT BOSNA |
| Aircraft | A319/M-SDE3FGHIRWY/LB1 |
Departure
| Time | 2026-05-05 20:38 |
|---|---|
| Airport | Stuttgart Airport (EDDS) |
Arrival
| Time | 2026-05-05 21:51 |
|---|---|
| Airport | Sarajevo International Airport (LQSA) |
| Time | Latitude | Longitude | Altitude | Speed | Heading |
|---|---|---|---|---|---|
| 2026-05-05 20:12 | 48.68915 | 9.19512 | 1315 ft | 0 kts | 344° |
| 2026-05-05 20:26 | 48.68915 | 9.19513 | 1315 ft | 1 kts | 344° |
| 2026-05-05 20:27 | 48.68893 | 9.19522 | 1314 ft | 4 kts | 344° |
| 2026-05-05 20:27 | 48.68870 | 9.19532 | 1312 ft | 2 kts | 343° |
| 2026-05-05 20:27 | 48.68847 | 9.19537 | 1311 ft | 4 kts | 25° |
| 2026-05-05 20:27 | 48.68831 | 9.19511 | 1311 ft | 4 kts | 72° |
| 2026-05-05 20:28 | 48.68828 | 9.19494 | 1312 ft | 1 kts | 74° |
| 2026-05-05 20:30 | 48.68829 | 9.19502 | 1311 ft | 4 kts | 74° |
| 2026-05-05 20:31 | 48.68845 | 9.19588 | 1310 ft | 11 kts | 74° |
| 2026-05-05 20:31 | 48.68871 | 9.19723 | 1307 ft | 16 kts | 73° |
| 2026-05-05 20:31 | 48.68882 | 9.19866 | 1302 ft | 14 kts | 127° |
| 2026-05-05 20:31 | 48.68817 | 9.19946 | 1296 ft | 8 kts | 75° |
| 2026-05-05 20:32 | 48.68835 | 9.20013 | 1295 ft | 9 kts | 73° |
| 2026-05-05 20:32 | 48.68856 | 9.20123 | 1293 ft | 13 kts | 74° |
| 2026-05-05 20:32 | 48.68884 | 9.20274 | 1289 ft | 17 kts | 74° |
| 2026-05-05 20:32 | 48.68915 | 9.20439 | 1286 ft | 15 kts | 74° |
| 2026-05-05 20:33 | 48.68946 | 9.20594 | 1280 ft | 15 kts | 73° |
| 2026-05-05 20:33 | 48.68974 | 9.20743 | 1277 ft | 14 kts | 75° |
| 2026-05-05 20:33 | 48.69004 | 9.20902 | 1273 ft | 17 kts | 74° |
| 2026-05-05 20:33 | 48.69041 | 9.21098 | 1270 ft | 22 kts | 74° |
| 2026-05-05 20:34 | 48.69085 | 9.21338 | 1263 ft | 26 kts | 74° |
| 2026-05-05 20:34 | 48.69127 | 9.21559 | 1262 ft | 21 kts | 73° |
| 2026-05-05 20:34 | 48.69173 | 9.21791 | 1253 ft | 25 kts | 73° |
| 2026-05-05 20:34 | 48.69220 | 9.22035 | 1251 ft | 18 kts | 74° |
| 2026-05-05 20:35 | 48.69259 | 9.22240 | 1246 ft | 23 kts | 73° |
| 2026-05-05 20:35 | 48.69301 | 9.22469 | 1240 ft | 21 kts | 74° |
| 2026-05-05 20:35 | 48.69346 | 9.22703 | 1232 ft | 25 kts | 74° |
| 2026-05-05 20:35 | 48.69394 | 9.22952 | 1227 ft | 23 kts | 75° |
| 2026-05-05 20:36 | 48.69422 | 9.23108 | 1223 ft | 24 kts | 75° |
| 2026-05-05 20:36 | 48.69472 | 9.23370 | 1218 ft | 28 kts | 74° |
| 2026-05-05 20:36 | 48.69522 | 9.23634 | 1213 ft | 21 kts | 73° |
| 2026-05-05 20:36 | 48.69566 | 9.23865 | 1208 ft | 25 kts | 74° |
| 2026-05-05 20:37 | 48.69609 | 9.24104 | 1202 ft | 23 kts | 76° |
| 2026-05-05 20:37 | 48.69559 | 9.24284 | 1194 ft | 18 kts | 136° |
| 2026-05-05 20:37 | 48.69452 | 9.24333 | 1190 ft | 15 kts | 178° |
| 2026-05-05 20:37 | 48.69376 | 9.24236 | 1193 ft | 19 kts | 252° |
| 2026-05-05 20:38 | 48.69293 | 9.23812 | 1201 ft | 69 kts | 253° |
| 2026-05-05 20:38 | 48.69114 | 9.22864 | 1220 ft | 118 kts | 254° |
| 2026-05-05 20:38 | 48.68842 | 9.21454 | 1330 ft | 153 kts | 253° |
| 2026-05-05 20:38 | 48.68557 | 9.19949 | 1960 ft | 147 kts | 253° |
| 2026-05-05 20:39 | 48.68278 | 9.18450 | 2517 ft | 150 kts | 252° |
| 2026-05-05 20:39 | 48.67997 | 9.16915 | 3064 ft | 152 kts | 252° |
| 2026-05-05 20:39 | 48.67719 | 9.15364 | 3624 ft | 153 kts | 253° |
| 2026-05-05 20:39 | 48.67444 | 9.13803 | 4251 ft | 154 kts | 253° |
| 2026-05-05 20:40 | 48.67175 | 9.12234 | 4897 ft | 153 kts | 255° |
| 2026-05-05 20:40 | 48.66892 | 9.10681 | 5538 ft | 152 kts | 249° |
| 2026-05-05 20:40 | 48.66210 | 9.09588 | 6282 ft | 145 kts | 206° |
| 2026-05-05 20:40 | 48.65186 | 9.09376 | 6780 ft | 157 kts | 183° |
| 2026-05-05 20:41 | 48.64081 | 9.09796 | 7201 ft | 173 kts | 165° |
| 2026-05-05 20:41 | 48.62986 | 9.10765 | 7551 ft | 197 kts | 147° |
| 2026-05-05 20:41 | 48.62039 | 9.12465 | 7788 ft | 229 kts | 126° |
| 2026-05-05 20:41 | 48.61463 | 9.14860 | 8065 ft | 257 kts | 103° |
| 2026-05-05 20:42 | 48.61452 | 9.17698 | 8449 ft | 282 kts | 87° |
| 2026-05-05 20:42 | 48.61344 | 9.20697 | 8973 ft | 296 kts | 106° |
| 2026-05-05 20:42 | 48.60847 | 9.23783 | 9686 ft | 306 kts | 108° |
| 2026-05-05 20:42 | 48.60330 | 9.26928 | 10218 ft | 323 kts | 107° |
| 2026-05-05 20:43 | 48.59762 | 9.30377 | 10565 ft | 344 kts | 107° |
| 2026-05-05 20:43 | 48.59187 | 9.33939 | 11222 ft | 352 kts | 107° |
| 2026-05-05 20:43 | 48.58614 | 9.37552 | 11977 ft | 356 kts | 106° |
| 2026-05-05 20:43 | 48.58038 | 9.41205 | 12777 ft | 359 kts | 106° |
| 2026-05-05 20:44 | 48.57466 | 9.44839 | 13541 ft | 363 kts | 106° |
| 2026-05-05 20:44 | 48.56878 | 9.48569 | 14235 ft | 366 kts | 106° |
| 2026-05-05 20:44 | 48.56214 | 9.52275 | 14926 ft | 366 kts | 114° |
| 2026-05-05 20:44 | 48.54997 | 9.55626 | 15616 ft | 365 kts | 126° |
| 2026-05-05 20:45 | 48.52195 | 9.62079 | 17026 ft | 369 kts | 127° |
| 2026-05-05 20:45 | 48.50768 | 9.65317 | 17718 ft | 372 kts | 127° |
| 2026-05-05 20:45 | 48.49327 | 9.68578 | 18390 ft | 376 kts | 125° |
| 2026-05-05 20:46 | 48.48222 | 9.72178 | 18975 ft | 382 kts | 113° |
| 2026-05-05 20:46 | 48.47097 | 9.75795 | 19596 ft | 381 kts | 123° |
| 2026-05-05 20:46 | 48.45637 | 9.79134 | 20231 ft | 381 kts | 129° |
| 2026-05-05 20:46 | 48.44033 | 9.82309 | 20864 ft | 383 kts | 130° |
| 2026-05-05 20:47 | 48.42387 | 9.85484 | 21486 ft | 385 kts | 130° |
| 2026-05-05 20:47 | 48.40771 | 9.88705 | 22083 ft | 388 kts | 129° |
| 2026-05-05 20:47 | 48.39189 | 9.92024 | 22684 ft | 390 kts | 127° |
| 2026-05-05 20:47 | 48.37651 | 9.95402 | 23263 ft | 393 kts | 127° |
| 2026-05-05 20:48 | 48.36131 | 9.98838 | 23762 ft | 396 kts | 126° |
| 2026-05-05 20:48 | 48.34613 | 10.02306 | 24208 ft | 399 kts | 126° |
| 2026-05-05 20:48 | 48.33083 | 10.05802 | 24661 ft | 402 kts | 126° |
| 2026-05-05 20:48 | 48.31537 | 10.09317 | 25104 ft | 404 kts | 127° |
| 2026-05-05 20:49 | 48.29991 | 10.12805 | 25528 ft | 407 kts | 127° |
| 2026-05-05 20:49 | 48.28388 | 10.16396 | 25962 ft | 410 kts | 127° |
| 2026-05-05 20:49 | 48.26814 | 10.19911 | 26386 ft | 413 kts | 127° |
| 2026-05-05 20:49 | 48.25196 | 10.23521 | 26809 ft | 416 kts | 127° |
| 2026-05-05 20:50 | 48.23574 | 10.27127 | 27234 ft | 418 kts | 127° |
| 2026-05-05 20:50 | 48.21935 | 10.30761 | 27668 ft | 421 kts | 127° |
| 2026-05-05 20:50 | 48.20281 | 10.34419 | 28040 ft | 424 kts | 128° |
| 2026-05-05 20:50 | 48.18619 | 10.38089 | 28450 ft | 427 kts | 128° |
| 2026-05-05 20:51 | 48.16942 | 10.41796 | 28843 ft | 431 kts | 129° |
| 2026-05-05 20:51 | 48.15279 | 10.45474 | 29221 ft | 434 kts | 129° |
| 2026-05-05 20:51 | 48.13582 | 10.49232 | 29615 ft | 437 kts | 129° |
| 2026-05-05 20:51 | 48.11877 | 10.53004 | 29996 ft | 439 kts | 129° |
| 2026-05-05 20:52 | 48.10155 | 10.56804 | 30324 ft | 442 kts | 129° |
| 2026-05-05 20:52 | 48.08422 | 10.60623 | 30641 ft | 444 kts | 129° |
| 2026-05-05 20:52 | 48.06682 | 10.64448 | 30958 ft | 447 kts | 129° |
| 2026-05-05 20:52 | 48.04925 | 10.68300 | 31273 ft | 449 kts | 129° |
| 2026-05-05 20:53 | 48.03156 | 10.72162 | 31519 ft | 451 kts | 130° |
| 2026-05-05 20:53 | 48.01380 | 10.76031 | 31882 ft | 452 kts | 130° |
| 2026-05-05 20:53 | 47.99604 | 10.79903 | 32330 ft | 451 kts | 130° |
| 2026-05-05 20:53 | 47.97835 | 10.83765 | 32750 ft | 451 kts | 130° |
| 2026-05-05 20:54 | 47.96068 | 10.87621 | 33179 ft | 450 kts | 130° |
| 2026-05-05 20:54 | 47.94302 | 10.91469 | 33608 ft | 449 kts | 130° |
| 2026-05-05 20:54 | 47.92535 | 10.95314 | 34023 ft | 449 kts | 130° |
| 2026-05-05 20:54 | 47.90765 | 10.99155 | 34378 ft | 448 kts | 131° |
| 2026-05-05 20:55 | 47.89001 | 11.02970 | 34702 ft | 449 kts | 131° |
| 2026-05-05 20:55 | 47.87221 | 11.06806 | 34999 ft | 449 kts | 131° |
| 2026-05-05 20:55 | 47.85446 | 11.10631 | 35307 ft | 449 kts | 131° |
| 2026-05-05 20:55 | 47.83673 | 11.14454 | 35649 ft | 449 kts | 131° |
| 2026-05-05 20:56 | 47.81902 | 11.18269 | 35970 ft | 448 kts | 130° |
| 2026-05-05 20:56 | 47.80127 | 11.22093 | 36271 ft | 448 kts | 130° |
| 2026-05-05 20:56 | 47.78358 | 11.25906 | 36594 ft | 447 kts | 130° |
| 2026-05-05 20:56 | 47.76584 | 11.29712 | 36830 ft | 448 kts | 130° |
| 2026-05-05 20:57 | 47.72985 | 11.37387 | 36874 ft | 459 kts | 130° |
| 2026-05-05 20:57 | 47.69303 | 11.45227 | 36875 ft | 465 kts | 130° |
| 2026-05-05 20:58 | 47.65636 | 11.53050 | 36865 ft | 465 kts | 130° |
| 2026-05-05 20:58 | 47.61936 | 11.60929 | 36866 ft | 466 kts | 130° |
| 2026-05-05 20:59 | 47.58214 | 11.68784 | 36863 ft | 466 kts | 130° |
| 2026-05-05 20:59 | 47.54486 | 11.76632 | 36864 ft | 466 kts | 130° |
| 2026-05-05 21:00 | 47.50760 | 11.84473 | 36841 ft | 465 kts | 130° |
| 2026-05-05 21:00 | 47.47037 | 11.92297 | 36859 ft | 465 kts | 130° |
| 2026-05-05 21:01 | 47.43305 | 12.00101 | 36857 ft | 465 kts | 130° |
| 2026-05-05 21:01 | 47.39565 | 12.07904 | 36877 ft | 465 kts | 130° |
| 2026-05-05 21:02 | 47.35829 | 12.15695 | 36874 ft | 465 kts | 130° |
| 2026-05-05 21:02 | 47.32078 | 12.23475 | 36869 ft | 466 kts | 130° |
| 2026-05-05 21:03 | 47.28315 | 12.31246 | 36882 ft | 466 kts | 130° |
| 2026-05-05 21:03 | 47.24543 | 12.39012 | 36885 ft | 467 kts | 131° |
| 2026-05-05 21:04 | 47.20764 | 12.46776 | 36873 ft | 466 kts | 130° |
| 2026-05-05 21:04 | 47.16982 | 12.54539 | 36893 ft | 467 kts | 130° |
| 2026-05-05 21:05 | 47.13189 | 12.62290 | 36905 ft | 466 kts | 130° |
| 2026-05-05 21:05 | 47.09399 | 12.70014 | 36907 ft | 466 kts | 130° |
| 2026-05-05 21:06 | 47.05603 | 12.77726 | 36916 ft | 467 kts | 130° |
| 2026-05-05 21:06 | 47.01804 | 12.85436 | 36932 ft | 468 kts | 130° |
| 2026-05-05 21:07 | 46.97982 | 12.93177 | 36961 ft | 469 kts | 130° |
| 2026-05-05 21:07 | 46.94149 | 13.00908 | 36956 ft | 469 kts | 130° |
| 2026-05-05 21:08 | 46.90305 | 13.08632 | 36957 ft | 470 kts | 130° |
| 2026-05-05 21:08 | 46.86457 | 13.16349 | 36960 ft | 470 kts | 130° |
| 2026-05-05 21:09 | 46.82607 | 13.24062 | 36971 ft | 470 kts | 130° |
| 2026-05-05 21:09 | 46.78744 | 13.31765 | 36961 ft | 471 kts | 130° |
| 2026-05-05 21:10 | 46.74857 | 13.39484 | 36978 ft | 472 kts | 131° |
| 2026-05-05 21:10 | 46.70959 | 13.47197 | 36977 ft | 473 kts | 131° |
| 2026-05-05 21:11 | 46.67081 | 13.54858 | 36960 ft | 474 kts | 131° |
| 2026-05-05 21:11 | 46.63168 | 13.62593 | 36976 ft | 475 kts | 131° |
| 2026-05-05 21:12 | 46.59241 | 13.70322 | 36966 ft | 475 kts | 131° |
| 2026-05-05 21:12 | 46.55300 | 13.78051 | 36968 ft | 476 kts | 131° |
| 2026-05-05 21:13 | 46.51358 | 13.85769 | 36956 ft | 476 kts | 131° |
| 2026-05-05 21:13 | 46.47400 | 13.93495 | 36959 ft | 478 kts | 131° |
| 2026-05-05 21:14 | 46.43421 | 14.01222 | 36936 ft | 477 kts | 131° |
| 2026-05-05 21:14 | 46.39427 | 14.08944 | 36977 ft | 480 kts | 131° |
| 2026-05-05 21:15 | 46.35429 | 14.16688 | 36966 ft | 480 kts | 131° |
| 2026-05-05 21:15 | 46.31427 | 14.24426 | 36977 ft | 481 kts | 131° |
| 2026-05-05 21:16 | 46.27412 | 14.32159 | 36978 ft | 481 kts | 131° |
| 2026-05-05 21:16 | 46.23374 | 14.39896 | 36977 ft | 482 kts | 131° |
| 2026-05-05 21:17 | 46.19322 | 14.47642 | 36982 ft | 484 kts | 131° |
| 2026-05-05 21:17 | 46.15260 | 14.55390 | 36969 ft | 485 kts | 130° |
| 2026-05-05 21:18 | 46.11183 | 14.63148 | 36986 ft | 486 kts | 130° |
| 2026-05-05 21:18 | 46.07095 | 14.70901 | 36990 ft | 486 kts | 131° |
| 2026-05-05 21:19 | 46.03693 | 14.77336 | 36998 ft | 486 kts | 131° |
| 2026-05-05 21:19 | 45.99594 | 14.85084 | 37007 ft | 486 kts | 130° |
| 2026-05-05 21:20 | 45.95494 | 14.92813 | 37007 ft | 486 kts | 130° |
| 2026-05-05 21:20 | 45.90711 | 15.01780 | 37011 ft | 486 kts | 130° |
| 2026-05-05 21:21 | 45.87257 | 15.08232 | 37009 ft | 486 kts | 130° |
| 2026-05-05 21:21 | 45.83161 | 15.15878 | 36985 ft | 486 kts | 130° |
| 2026-05-05 21:22 | 45.79040 | 15.23561 | 36993 ft | 486 kts | 130° |
| 2026-05-05 21:22 | 45.74912 | 15.31234 | 36998 ft | 486 kts | 130° |
| 2026-05-05 21:23 | 45.70781 | 15.38892 | 36995 ft | 486 kts | 130° |
| 2026-05-05 21:23 | 45.66643 | 15.46532 | 37009 ft | 486 kts | 130° |
| 2026-05-05 21:24 | 45.62498 | 15.54154 | 37007 ft | 486 kts | 130° |
| 2026-05-05 21:24 | 45.58360 | 15.61767 | 36996 ft | 485 kts | 130° |
| 2026-05-05 21:25 | 45.54210 | 15.69374 | 37000 ft | 485 kts | 131° |
| 2026-05-05 21:25 | 45.50053 | 15.76956 | 36994 ft | 485 kts | 130° |
| 2026-05-05 21:26 | 45.45891 | 15.84527 | 36982 ft | 485 kts | 131° |
| 2026-05-05 21:26 | 45.41721 | 15.92105 | 36980 ft | 487 kts | 131° |
| 2026-05-05 21:27 | 45.37535 | 15.99701 | 36992 ft | 488 kts | 131° |
| 2026-05-05 21:27 | 45.33336 | 16.07293 | 36973 ft | 484 kts | 130° |
| 2026-05-05 21:28 | 45.31267 | 16.11033 | 36715 ft | 478 kts | 131° |
| 2026-05-05 21:28 | 45.29223 | 16.14721 | 36449 ft | 473 kts | 131° |
| 2026-05-05 21:28 | 45.27190 | 16.18380 | 36190 ft | 472 kts | 131° |
| 2026-05-05 21:28 | 45.25179 | 16.21983 | 35938 ft | 473 kts | 131° |
| 2026-05-05 21:29 | 45.23132 | 16.25642 | 35685 ft | 474 kts | 131° |
| 2026-05-05 21:29 | 45.21076 | 16.29317 | 35433 ft | 476 kts | 131° |
| 2026-05-05 21:29 | 45.19015 | 16.33000 | 35185 ft | 478 kts | 131° |
| 2026-05-05 21:29 | 45.16943 | 16.36705 | 34925 ft | 481 kts | 131° |
| 2026-05-05 21:30 | 45.14867 | 16.40416 | 34683 ft | 482 kts | 131° |
| 2026-05-05 21:30 | 45.12781 | 16.44137 | 34441 ft | 482 kts | 131° |
| 2026-05-05 21:30 | 45.10692 | 16.47855 | 34197 ft | 481 kts | 131° |
| 2026-05-05 21:30 | 45.08618 | 16.51545 | 33657 ft | 479 kts | 131° |
| 2026-05-05 21:31 | 45.06546 | 16.55227 | 33133 ft | 477 kts | 131° |
| 2026-05-05 21:31 | 45.04484 | 16.58887 | 32586 ft | 475 kts | 131° |
| 2026-05-05 21:31 | 45.02424 | 16.62533 | 32045 ft | 472 kts | 131° |
| 2026-05-05 21:31 | 45.00378 | 16.66147 | 31502 ft | 469 kts | 131° |
| 2026-05-05 21:32 | 44.98347 | 16.69736 | 30969 ft | 466 kts | 131° |
| 2026-05-05 21:32 | 44.96333 | 16.73294 | 30437 ft | 462 kts | 131° |
| 2026-05-05 21:32 | 44.94333 | 16.76827 | 29881 ft | 459 kts | 131° |
| 2026-05-05 21:32 | 44.92351 | 16.80326 | 29351 ft | 453 kts | 131° |
| 2026-05-05 21:33 | 44.90391 | 16.83775 | 28851 ft | 448 kts | 131° |
| 2026-05-05 21:33 | 44.88448 | 16.87182 | 28361 ft | 443 kts | 131° |
| 2026-05-05 21:33 | 44.86524 | 16.90550 | 27881 ft | 439 kts | 131° |
| 2026-05-05 21:33 | 44.84622 | 16.93881 | 27408 ft | 434 kts | 131° |
| 2026-05-05 21:34 | 44.82736 | 16.97182 | 26956 ft | 429 kts | 130° |
| 2026-05-05 21:34 | 44.80874 | 17.00444 | 26523 ft | 425 kts | 130° |
| 2026-05-05 21:34 | 44.79029 | 17.03669 | 26086 ft | 421 kts | 130° |
| 2026-05-05 21:34 | 44.77196 | 17.06870 | 25638 ft | 418 kts | 130° |
| 2026-05-05 21:35 | 44.75378 | 17.10040 | 25201 ft | 415 kts | 130° |
| 2026-05-05 21:35 | 44.73590 | 17.13148 | 24761 ft | 413 kts | 130° |
| 2026-05-05 21:35 | 44.71784 | 17.16278 | 24308 ft | 411 kts | 130° |
| 2026-05-05 21:35 | 44.69985 | 17.19393 | 23859 ft | 410 kts | 130° |
| 2026-05-05 21:36 | 44.68194 | 17.22495 | 23362 ft | 408 kts | 130° |
| 2026-05-05 21:36 | 44.66412 | 17.25581 | 22876 ft | 405 kts | 130° |
| 2026-05-05 21:36 | 44.64649 | 17.28634 | 22395 ft | 401 kts | 130° |
| 2026-05-05 21:36 | 44.62900 | 17.31660 | 21922 ft | 397 kts | 130° |
| 2026-05-05 21:37 | 44.61166 | 17.34659 | 21448 ft | 394 kts | 130° |
| 2026-05-05 21:37 | 44.59448 | 17.37624 | 20980 ft | 390 kts | 131° |
| 2026-05-05 21:37 | 44.57740 | 17.40561 | 20512 ft | 387 kts | 131° |
| 2026-05-05 21:37 | 44.56045 | 17.43478 | 20037 ft | 384 kts | 130° |
| 2026-05-05 21:38 | 44.54364 | 17.46370 | 19562 ft | 381 kts | 131° |
| 2026-05-05 21:38 | 44.52697 | 17.49237 | 19097 ft | 378 kts | 130° |
| 2026-05-05 21:38 | 44.51042 | 17.52080 | 18629 ft | 375 kts | 131° |
| 2026-05-05 21:38 | 44.49398 | 17.54902 | 18134 ft | 373 kts | 130° |
| 2026-05-05 21:39 | 44.47765 | 17.57701 | 17662 ft | 369 kts | 131° |
| 2026-05-05 21:39 | 44.46152 | 17.60464 | 17206 ft | 365 kts | 131° |
| 2026-05-05 21:39 | 44.44556 | 17.63194 | 16752 ft | 361 kts | 131° |
| 2026-05-05 21:39 | 44.42972 | 17.65894 | 16298 ft | 357 kts | 131° |
| 2026-05-05 21:40 | 44.41400 | 17.68566 | 15852 ft | 354 kts | 131° |
| 2026-05-05 21:40 | 44.39845 | 17.71212 | 15415 ft | 350 kts | 131° |
| 2026-05-05 21:40 | 44.38303 | 17.73826 | 14979 ft | 347 kts | 134° |
| 2026-05-05 21:40 | 44.36556 | 17.76095 | 14579 ft | 340 kts | 147° |
| 2026-05-05 21:41 | 44.34549 | 17.77782 | 14163 ft | 335 kts | 156° |
| 2026-05-05 21:41 | 44.32482 | 17.79266 | 13752 ft | 333 kts | 156° |
| 2026-05-05 21:41 | 44.30434 | 17.80744 | 13323 ft | 329 kts | 155° |
| 2026-05-05 21:41 | 44.28410 | 17.82206 | 12942 ft | 326 kts | 154° |
| 2026-05-05 21:42 | 44.26408 | 17.83648 | 12559 ft | 322 kts | 154° |
| 2026-05-05 21:42 | 44.24428 | 17.85072 | 12157 ft | 319 kts | 154° |
| 2026-05-05 21:42 | 44.22464 | 17.86487 | 11773 ft | 316 kts | 154° |
| 2026-05-05 21:42 | 44.20540 | 17.87872 | 11394 ft | 314 kts | 154° |
| 2026-05-05 21:43 | 44.18602 | 17.89265 | 11019 ft | 312 kts | 154° |
| 2026-05-05 21:43 | 44.16678 | 17.90646 | 10640 ft | 310 kts | 154° |
| 2026-05-05 21:43 | 44.14760 | 17.92019 | 10259 ft | 309 kts | 155° |
| 2026-05-05 21:43 | 44.12861 | 17.93379 | 9999 ft | 304 kts | 155° |
| 2026-05-05 21:44 | 44.11002 | 17.94708 | 9848 ft | 296 kts | 155° |
| 2026-05-05 21:44 | 44.09188 | 17.96004 | 9599 ft | 290 kts | 155° |
| 2026-05-05 21:44 | 44.07396 | 17.97284 | 9260 ft | 290 kts | 156° |
| 2026-05-05 21:44 | 44.05606 | 17.98558 | 8918 ft | 288 kts | 156° |
| 2026-05-05 21:45 | 44.03792 | 17.99847 | 8288 ft | 297 kts | 156° |
| 2026-05-05 21:45 | 44.01935 | 18.01132 | 7847 ft | 296 kts | 160° |
| 2026-05-05 21:45 | 44.00035 | 18.02065 | 7441 ft | 284 kts | 165° |
| 2026-05-05 21:45 | 43.98203 | 18.02934 | 7074 ft | 273 kts | 165° |
| 2026-05-05 21:46 | 43.96433 | 18.03767 | 6714 ft | 264 kts | 165° |
| 2026-05-05 21:46 | 43.94727 | 18.04589 | 6355 ft | 256 kts | 162° |
| 2026-05-05 21:46 | 43.93213 | 18.05832 | 5987 ft | 252 kts | 146° |
| 2026-05-05 21:46 | 43.92034 | 18.07606 | 5664 ft | 249 kts | 128° |
| 2026-05-05 21:47 | 43.91217 | 18.09686 | 5331 ft | 243 kts | 123° |
| 2026-05-05 21:47 | 43.90453 | 18.11762 | 4994 ft | 239 kts | 122° |
| 2026-05-05 21:47 | 43.89711 | 18.13765 | 4673 ft | 228 kts | 121° |
| 2026-05-05 21:47 | 43.89008 | 18.15650 | 4375 ft | 213 kts | 118° |
| 2026-05-05 21:48 | 43.88341 | 18.17408 | 4095 ft | 205 kts | 118° |
| 2026-05-05 21:48 | 43.87680 | 18.19122 | 3929 ft | 197 kts | 119° |
| 2026-05-05 21:48 | 43.87046 | 18.20768 | 3664 ft | 192 kts | 118° |
| 2026-05-05 21:48 | 43.86474 | 18.22405 | 3375 ft | 183 kts | 118° |
| 2026-05-05 21:49 | 43.85955 | 18.23905 | 3136 ft | 161 kts | 117° |
| 2026-05-05 21:49 | 43.85497 | 18.25219 | 2825 ft | 142 kts | 119° |
| 2026-05-05 21:49 | 43.85056 | 18.26397 | 2652 ft | 134 kts | 122° |
| 2026-05-05 21:49 | 43.84595 | 18.27515 | 2405 ft | 134 kts | 123° |
| 2026-05-05 21:50 | 43.84139 | 18.28625 | 2164 ft | 133 kts | 121° |
| 2026-05-05 21:50 | 43.83725 | 18.29775 | 2010 ft | 132 kts | 121° |
| 2026-05-05 21:50 | 43.83308 | 18.30896 | 1865 ft | 131 kts | 122° |
| 2026-05-05 21:50 | 43.82886 | 18.32011 | 1696 ft | 130 kts | 121° |
| 2026-05-05 21:51 | 43.82501 | 18.33022 | 1683 ft | 100 kts | 116° |
| 2026-05-05 21:51 | 43.82260 | 18.33681 | 1698 ft | 59 kts | 117° |
| 2026-05-05 21:51 | 43.82089 | 18.34136 | 1707 ft | 48 kts | 117° |
| 2026-05-05 21:51 | 43.81989 | 18.34407 | 1712 ft | 18 kts | 116° |
| 2026-05-05 21:52 | 43.82060 | 18.34613 | 1714 ft | 18 kts | 347° |
| 2026-05-05 21:52 | 43.82141 | 18.34463 | 1710 ft | 22 kts | 295° |
| 2026-05-05 21:52 | 43.82222 | 18.34252 | 1705 ft | 27 kts | 297° |
| 2026-05-05 21:53 | 43.82286 | 18.34078 | 1701 ft | 21 kts | 300° |
| 2026-05-05 21:53 | 43.82366 | 18.33874 | 1690 ft | 24 kts | 297° |
| 2026-05-05 21:53 | 43.82418 | 18.33730 | 1689 ft | 17 kts | 295° |
| 2026-05-05 21:53 | 43.82461 | 18.33609 | 1690 ft | 9 kts | 296° |
| 2026-05-05 21:54 | 43.82503 | 18.33598 | 1686 ft | 7 kts | 30° |
| 2026-05-05 21:54 | 43.82525 | 18.33616 | 1687 ft | 1 kts | 33° |
| 2026-05-05 21:54 | 43.82533 | 18.33623 | 1692 ft | 0 kts | 25° |